Time;durP1;ratioP1;P1;durP2;ratioP2;P2;SDS_P1;SDS_P2;PMS_P1;PMS_P2;Temp;Humidity;BMP_temperature;BMP_pressure;BME280_temperature;BME280_humidity;BME280_pressure;Samples;Min_cycle;Max_cycle;Signal;HPM_P1;HPM_P2
2024/01/24 00:01:25;;;;;;;9.90;3.17;;;12.10;99.90;;;;;;5085850;28;20040;-78
2024/01/24 00:03:51;;;;;;;7.28;3.25;;;12.10;99.90;;;;;;5063169;28;20040;-79
2024/01/24 00:06:18;;;;;;;6.50;2.88;;;12.20;99.90;;;;;;5064923;28;20029;-79
2024/01/24 00:08:44;;;;;;;8.30;2.58;;;12.20;99.90;;;;;;5063711;28;20063;-78
2024/01/24 00:11:10;;;;;;;6.10;2.85;;;12.20;99.90;;;;;;5046865;28;20049;-79
2024/01/24 00:13:37;;;;;;;6.53;2.30;;;12.20;99.90;;;;;;5064129;28;20031;-78
2024/01/24 00:16:04;;;;;;;9.63;2.90;;;12.20;99.90;;;;;;5064609;28;20032;-79
2024/01/24 00:18:30;;;;;;;6.82;2.60;;;12.30;99.90;;;;;;5065130;28;20059;-81
2024/01/24 00:20:56;;;;;;;5.43;2.13;;;12.30;99.90;;;;;;5064818;28;20036;-78
2024/01/24 00:23:24;;;;;;;5.47;2.05;;;12.30;99.90;;;;;;5062437;28;20037;-80
2024/01/24 00:25:51;;;;;;;2.83;1.48;;;12.30;99.90;;;;;;5064715;28;20032;-81
2024/01/24 00:28:18;;;;;;;4.75;1.52;;;12.30;99.90;;;;;;5046071;28;20044;-80
2024/01/24 00:30:45;;;;;;;6.18;1.48;;;12.30;99.90;;;;;;5062522;28;20037;-78
2024/01/24 00:33:12;;;;;;;6.22;1.63;;;12.40;99.90;;;;;;5060594;28;20032;-81
2024/01/24 00:35:39;;;;;;;4.80;1.27;;;12.40;99.90;;;;;;5063244;28;20051;-81
2024/01/24 00:38:05;;;;;;;3.72;1.00;;;12.40;99.90;;;;;;5064843;28;20028;-78
2024/01/24 00:40:31;;;;;;;4.65;1.17;;;12.40;99.90;;;;;;5048699;28;20051;-82
2024/01/24 00:42:58;;;;;;;4.07;1.15;;;12.40;99.90;;;;;;5047927;28;20467;-80
2024/01/24 00:45:24;;;;;;;3.03;0.77;;;12.50;99.90;;;;;;5046506;28;20070;-80
2024/01/24 00:47:50;;;;;;;8.52;1.27;;;12.40;99.90;;;;;;5063060;28;20028;-80
2024/01/24 00:50:17;;;;;;;5.18;1.17;;;12.50;99.90;;;;;;5059976;28;20333;-80
2024/01/24 00:52:43;;;;;;;4.72;0.90;;;12.50;99.90;;;;;;5095390;28;20028;-83
2024/01/24 00:55:10;;;;;;;3.45;0.90;;;12.50;99.90;;;;;;5045479;28;20305;-77
2024/01/24 00:57:37;;;;;;;2.45;0.73;;;12.60;99.90;;;;;;5066702;28;20051;-79
2024/01/24 01:00:06;;;;;;;4.07;0.77;;;12.50;99.90;;;;;;5062627;28;20395;-81
2024/01/24 01:02:33;;;;;;;2.47;0.60;;;12.50;99.90;;;;;;5044443;28;20036;-82
2024/01/24 01:05:00;;;;;;;4.05;0.80;;;12.50;99.90;;;;;;5052134;28;20036;-83
2024/01/24 01:07:26;;;;;;;2.08;0.82;;;12.60;99.90;;;;;;5064057;28;20376;-80
2024/01/24 01:09:52;;;;;;;1.60;0.70;;;12.60;99.90;;;;;;5046924;28;20549;-78
2024/01/24 01:12:19;;;;;;;2.20;1.10;;;12.50;99.90;;;;;;5047003;28;20031;-79
2024/01/24 01:14:45;;;;;;;1.92;0.57;;;12.60;99.90;;;;;;5065107;28;20032;-80
2024/01/24 01:17:11;;;;;;;2.33;0.60;;;12.50;99.90;;;;;;5065477;28;20021;-81
2024/01/24 01:19:38;;;;;;;3.03;0.60;;;12.50;99.90;;;;;;5063857;28;20040;-78
2024/01/24 01:22:04;;;;;;;1.75;0.80;;;12.40;99.90;;;;;;5064176;28;20039;-78
2024/01/24 01:24:30;;;;;;;1.27;0.60;;;12.50;99.90;;;;;;5061027;28;20046;-80
2024/01/24 01:26:57;;;;;;;2.00;0.73;;;12.40;99.90;;;;;;5065441;28;20032;-80
2024/01/24 01:29:23;;;;;;;3.45;1.00;;;12.40;99.90;;;;;;5065517;28;20035;-80
2024/01/24 01:31:49;;;;;;;1.88;0.70;;;12.40;99.90;;;;;;5046938;28;20457;-79
2024/01/24 01:34:16;;;;;;;5.20;1.10;;;12.30;99.90;;;;;;5046565;28;20255;-80
2024/01/24 01:36:42;;;;;;;5.25;1.98;;;12.30;99.90;;;;;;5047072;28;20040;-80
2024/01/24 01:39:08;;;;;;;4.07;1.02;;;12.30;99.90;;;;;;5063254;28;20032;-80
2024/01/24 01:41:36;;;;;;;1.27;0.70;;;12.20;99.90;;;;;;5046488;28;20037;-79
2024/01/24 01:44:03;;;;;;;1.35;0.60;;;12.20;99.90;;;;;;5064606;28;20035;-79
2024/01/24 01:46:31;;;;;;;2.17;1.00;;;12.20;99.90;;;;;;5097092;28;20232;-80
2024/01/24 01:48:58;;;;;;;2.33;0.88;;;12.20;99.90;;;;;;5062894;28;20040;-80
2024/01/24 01:51:26;;;;;;;1.67;1.20;;;12.10;99.90;;;;;;5063514;28;20044;-80
2024/01/24 01:53:53;;;;;;;3.00;0.70;;;12.10;99.90;;;;;;5080603;28;20048;-80
2024/01/24 01:56:21;;;;;;;2.92;1.15;;;12.10;99.90;;;;;;5047261;28;20035;-80
2024/01/24 01:58:49;;;;;;;2.85;0.90;;;12.10;99.90;;;;;;5047433;28;20460;-80
2024/01/24 02:01:16;;;;;;;2.33;1.30;;;12.10;99.90;;;;;;5065350;28;20028;-80
2024/01/24 02:03:47;;;;;;;2.70;0.77;;;12.00;99.90;;;;;;5065318;28;20028;-80
2024/01/24 02:06:13;;;;;;;2.47;1.45;;;12.00;99.90;;;;;;5063822;28;20032;-80
2024/01/24 02:08:40;;;;;;;2.75;1.20;;;12.00;99.90;;;;;;5063866;28;20479;-81
2024/01/24 02:11:06;;;;;;;2.33;1.80;;;12.00;99.90;;;;;;5047054;28;20040;-80
2024/01/24 02:13:32;;;;;;;1.65;1.30;;;12.00;99.90;;;;;;5064095;28;20028;-79
2024/01/24 02:15:59;;;;;;;1.80;1.50;;;12.00;99.90;;;;;;5063912;28;20031;-81
2024/01/24 02:18:26;;;;;;;1.70;1.60;;;12.00;99.90;;;;;;5063814;28;20059;-80
2024/01/24 02:20:52;;;;;;;1.63;1.50;;;12.00;99.90;;;;;;5063546;28;20029;-79
2024/01/24 02:23:25;;;;;;;2.33;2.13;;;12.00;99.90;;;;;;5063816;28;20029;-80
2024/01/24 02:25:52;;;;;;;2.58;2.20;;;12.00;99.90;;;;;;5047338;28;20029;-80
2024/01/24 02:28:19;;;;;;;1.90;1.58;;;12.00;99.90;;;;;;5044619;28;20041;-81
2024/01/24 02:30:46;;;;;;;2.30;1.65;;;12.00;99.90;;;;;;5046884;28;20033;-80
2024/01/24 02:33:12;;;;;;;2.17;1.15;;;12.00;99.90;;;;;;5063678;28;20340;-81
2024/01/24 02:35:39;;;;;;;1.77;1.67;;;12.00;99.90;;;;;;5065881;28;20043;-78
2024/01/24 02:38:05;;;;;;;2.42;1.25;;;12.00;99.90;;;;;;5048292;28;20024;-80
2024/01/24 02:40:32;;;;;;;1.65;1.27;;;12.00;99.90;;;;;;5034878;28;20111;-79
2024/01/24 02:42:58;;;;;;;3.75;1.55;;;12.00;99.90;;;;;;5067441;28;20039;-79
2024/01/24 02:45:24;;;;;;;1.70;1.25;;;12.00;99.90;;;;;;5101203;28;20028;-81
2024/01/24 02:47:51;;;;;;;1.65;1.20;;;12.00;99.90;;;;;;5048564;28;20041;-80
2024/01/24 02:50:17;;;;;;;1.40;1.20;;;12.00;99.90;;;;;;5067378;28;20087;-81
2024/01/24 02:52:43;;;;;;;1.92;1.15;;;12.00;99.90;;;;;;5067052;28;20036;-81
2024/01/24 02:55:15;;;;;;;1.55;0.80;;;12.00;99.90;;;;;;5067079;28;20039;-79
2024/01/24 02:57:42;;;;;;;2.33;1.05;;;12.00;99.90;;;;;;5066900;28;20028;-79
2024/01/24 03:00:09;;;;;;;4.20;1.90;;;12.00;99.90;;;;;;5066964;28;20029;-80
2024/01/24 03:02:36;;;;;;;2.08;1.48;;;12.10;99.90;;;;;;5066571;28;20048;-80
2024/01/24 03:05:03;;;;;;;1.38;1.20;;;12.10;99.90;;;;;;5066755;28;20036;-81
2024/01/24 03:07:29;;;;;;;3.50;1.15;;;12.10;99.90;;;;;;5067193;28;20032;-79
2024/01/24 03:09:55;;;;;;;1.48;0.93;;;12.10;99.90;;;;;;5084178;28;20037;-81
2024/01/24 03:12:21;;;;;;;1.60;0.80;;;12.10;99.90;;;;;;5033226;28;20538;-80
2024/01/24 03:14:48;;;;;;;3.83;1.00;;;12.10;99.90;;;;;;5066733;28;20029;-79
2024/01/24 03:17:14;;;;;;;1.83;1.15;;;12.10;99.90;;;;;;5050045;28;20040;-80
2024/01/24 03:19:41;;;;;;;2.58;1.20;;;12.10;99.90;;;;;;5067216;28;20055;-78
2024/01/24 03:22:07;;;;;;;3.33;1.00;;;12.10;99.90;;;;;;5032810;28;20037;-79
2024/01/24 03:24:33;;;;;;;2.65;1.30;;;12.10;99.90;;;;;;5049859;28;20032;-80
2024/01/24 03:27:00;;;;;;;4.05;1.20;;;12.10;99.90;;;;;;5068220;28;20020;-80
2024/01/24 03:29:26;;;;;;;5.75;1.40;;;12.10;99.90;;;;;;5067973;28;20028;-80
2024/01/24 03:31:52;;;;;;;6.68;1.75;;;12.10;99.90;;;;;;5049607;28;20047;-80
2024/01/24 03:34:19;;;;;;;7.40;1.55;;;12.00;99.90;;;;;;5066146;28;20040;-79
2024/01/24 03:36:45;;;;;;;5.60;1.00;;;12.00;99.90;;;;;;5069423;28;20016;-79
2024/01/24 03:39:12;;;;;;;6.57;1.08;;;12.00;99.90;;;;;;5065730;28;20028;-79
2024/01/24 03:41:38;;;;;;;4.53;0.60;;;11.90;99.90;;;;;;5098962;28;20032;-78
2024/01/24 03:44:05;;;;;;;5.97;0.90;;;11.80;99.90;;;;;;5066013;28;20024;-80
2024/01/24 03:46:31;;;;;;;6.07;0.75;;;11.80;99.90;;;;;;5065856;28;20039;-79
2024/01/24 03:48:57;;;;;;;9.30;1.58;;;11.80;99.90;;;;;;5048376;28;20479;-79
2024/01/24 03:51:24;;;;;;;10.32;0.77;;;11.70;99.90;;;;;;5082225;28;20062;-81
2024/01/24 03:53:51;;;;;;;4.90;0.60;;;11.70;99.90;;;;;;5082656;28;20455;-79
2024/01/24 03:56:17;;;;;;;8.30;1.23;;;11.70;99.90;;;;;;5065839;28;20020;-79
2024/01/24 03:58:44;;;;;;;5.88;0.90;;;11.60;99.90;;;;;;5065763;28;20468;-79
2024/01/24 04:01:10;;;;;;;7.28;0.68;;;11.60;99.90;;;;;;5048404;28;20705;-80
2024/01/24 04:03:36;;;;;;;7.88;1.23;;;11.60;99.90;;;;;;5065642;28;20039;-80
2024/01/24 04:06:03;;;;;;;8.48;0.80;;;11.60;99.90;;;;;;5048354;28;20040;-81
2024/01/24 04:08:29;;;;;;;13.18;1.88;;;11.60;99.90;;;;;;5048826;28;20075;-80
2024/01/24 04:10:56;;;;;;;15.27;2.78;;;11.60;99.90;;;;;;5065035;28;20651;-79
2024/01/24 04:13:23;;;;;;;10.75;0.98;;;11.60;99.90;;;;;;5065278;28;20684;-79
2024/01/24 04:15:50;;;;;;;10.05;1.23;;;11.60;99.90;;;;;;5048428;28;20039;-79
2024/01/24 04:18:16;;;;;;;10.35;1.52;;;11.60;99.90;;;;;;5048086;28;20506;-80
2024/01/24 04:20:42;;;;;;;12.13;1.63;;;11.60;99.90;;;;;;5066098;28;20029;-79
2024/01/24 04:23:09;;;;;;;16.10;1.88;;;11.50;99.90;;;;;;5046896;28;20036;-80
2024/01/24 04:25:35;;;;;;;16.60;2.25;;;11.50;99.90;;;;;;5031593;28;20495;-78
2024/01/24 04:28:02;;;;;;;17.08;2.65;;;11.40;99.90;;;;;;5064852;28;20036;-79
2024/01/24 04:30:28;;;;;;;13.57;1.67;;;11.30;99.90;;;;;;5046755;28;20037;-79
2024/01/24 04:32:55;;;;;;;19.90;2.53;;;11.30;99.90;;;;;;5066151;28;20378;-80
2024/01/24 04:35:21;;;;;;;20.75;3.67;;;11.20;99.90;;;;;;5064961;28;20385;-78
2024/01/24 04:37:47;;;;;;;17.02;3.03;;;11.20;99.90;;;;;;5067702;28;20225;-79
2024/01/24 04:40:14;;;;;;;22.80;3.13;;;11.20;99.90;;;;;;5050669;28;20047;-79
2024/01/24 04:42:40;;;;;;;20.50;4.10;;;11.10;99.90;;;;;;5083352;28;20040;-79
2024/01/24 04:45:06;;;;;;;21.55;3.28;;;11.10;99.90;;;;;;5101677;27;20573;-81
2024/01/24 04:47:33;;;;;;;27.75;3.70;;;11.10;99.90;;;;;;5081647;28;20051;-80
2024/01/24 04:50:00;;;;;;;19.40;2.70;;;11.00;99.90;;;;;;5065270;28;20051;-78
2024/01/24 04:52:26;;;;;;;26.83;3.50;;;11.10;99.90;;;;;;5046188;28;20036;-80
2024/01/24 04:54:52;;;;;;;31.30;3.92;;;11.10;99.90;;;;;;5047221;28;20041;-79
2024/01/24 04:57:19;;;;;;;30.15;4.50;;;11.10;99.90;;;;;;5058954;28;20047;-80
2024/01/24 04:59:45;;;;;;;25.98;3.15;;;11.10;99.90;;;;;;5064301;28;20039;-80
2024/01/24 05:02:11;;;;;;;30.30;4.85;;;11.10;99.90;;;;;;5097936;28;20033;-78
2024/01/24 05:04:38;;;;;;;20.73;4.18;;;11.10;99.90;;;;;;5064120;28;20040;-81
2024/01/24 05:07:04;;;;;;;28.50;5.05;;;11.10;99.90;;;;;;5065744;28;20016;-81
2024/01/24 05:09:30;;;;;;;24.00;4.43;;;11.10;99.90;;;;;;5064137;28;20028;-81
2024/01/24 05:11:57;;;;;;;27.70;4.70;;;11.10;99.90;;;;;;5064008;28;20047;-79
2024/01/24 05:14:23;;;;;;;30.33;5.43;;;11.10;99.90;;;;;;5080579;28;20450;-80
2024/01/24 05:16:49;;;;;;;24.63;4.53;;;11.10;99.90;;;;;;5064041;28;20031;-79
2024/01/24 05:19:16;;;;;;;23.83;4.10;;;11.00;99.90;;;;;;5064053;28;20028;-80
2024/01/24 05:21:42;;;;;;;29.83;4.82;;;11.00;99.90;;;;;;5044746;28;20033;-81
2024/01/24 05:24:10;;;;;;;25.35;4.97;;;11.00;99.90;;;;;;5064123;28;20032;-80
2024/01/24 05:26:37;;;;;;;28.48;4.90;;;10.90;99.90;;;;;;5063989;28;20032;-80
2024/01/24 05:29:07;;;;;;;29.52;4.75;;;10.90;99.90;;;;;;5061926;28;20029;-80
2024/01/24 05:31:36;;;;;;;29.33;4.70;;;10.90;99.90;;;;;;5046012;28;20048;-80
2024/01/24 05:34:02;;;;;;;27.58;5.30;;;10.90;99.90;;;;;;5062022;28;20029;-77
2024/01/24 05:36:29;;;;;;;34.97;4.70;;;10.90;99.90;;;;;;5047229;28;20036;-80
2024/01/24 05:38:55;;;;;;;38.75;6.50;;;10.90;99.90;;;;;;5065385;28;20033;-81
2024/01/24 05:41:22;;;;;;;32.38;6.28;;;10.80;99.90;;;;;;5044419;28;20029;-80
2024/01/24 05:43:48;;;;;;;33.15;6.35;;;10.80;99.90;;;;;;5064145;28;20463;-78
2024/01/24 05:46:15;;;;;;;33.08;4.78;;;10.70;99.90;;;;;;5064012;28;20463;-80
2024/01/24 05:48:41;;;;;;;39.05;5.43;;;10.70;99.90;;;;;;5047124;28;20036;-81
2024/01/24 05:51:07;;;;;;;42.85;7.78;;;10.70;99.90;;;;;;5064915;28;20029;-80
2024/01/24 05:53:34;;;;;;;37.40;6.50;;;10.70;99.90;;;;;;5046571;28;20037;-78
2024/01/24 05:56:00;;;;;;;36.78;5.50;;;10.70;99.90;;;;;;5045859;28;20056;-81
2024/01/24 05:58:27;;;;;;;41.50;7.10;;;10.70;99.90;;;;;;5045574;28;20029;-80
2024/01/24 06:00:53;;;;;;;39.80;7.60;;;10.70;99.90;;;;;;5063625;28;20040;-80
2024/01/24 06:03:20;;;;;;;38.85;6.85;;;10.70;99.90;;;;;;5081065;28;20043;-80
2024/01/24 06:05:46;;;;;;;35.45;6.70;;;10.70;99.90;;;;;;5064112;28;20039;-81
2024/01/24 06:08:13;;;;;;;38.28;8.48;;;10.70;99.90;;;;;;5064002;28;20029;-77
2024/01/24 06:10:39;;;;;;;36.38;6.85;;;10.80;99.90;;;;;;5047915;28;20040;-80
2024/01/24 06:13:05;;;;;;;38.97;6.25;;;10.80;99.90;;;;;;5050907;28;20036;-82
2024/01/24 06:15:31;;;;;;;37.42;6.65;;;10.80;99.90;;;;;;5067557;28;20032;-80
2024/01/24 06:17:58;;;;;;;35.83;6.30;;;10.80;99.90;;;;;;5050808;28;20039;-79
2024/01/24 06:20:25;;;;;;;39.83;6.70;;;10.80;99.90;;;;;;5050703;28;20036;-78
2024/01/24 06:22:51;;;;;;;44.58;6.57;;;10.80;99.90;;;;;;5067526;28;20387;-79
2024/01/24 06:25:18;;;;;;;39.33;7.18;;;10.80;99.90;;;;;;5051431;28;20032;-80
2024/01/24 06:27:45;;;;;;;45.47;6.35;;;10.70;99.90;;;;;;5067734;28;20047;-80
2024/01/24 06:30:12;;;;;;;45.58;6.90;;;10.60;99.90;;;;;;5034905;28;20048;-80
2024/01/24 06:32:38;;;;;;;36.42;6.22;;;10.60;99.90;;;;;;5069997;28;20059;-81
2024/01/24 06:35:05;;;;;;;50.92;8.40;;;10.60;99.90;;;;;;5052483;28;20037;-79
2024/01/24 06:37:31;;;;;;;41.03;7.22;;;10.60;99.90;;;;;;5055040;28;20465;-79
2024/01/24 06:39:58;;;;;;;40.10;6.90;;;10.60;99.90;;;;;;5068622;28;20028;-81
2024/01/24 06:42:25;;;;;;;50.58;7.10;;;10.60;99.90;;;;;;5051249;28;20024;-79
2024/01/24 06:44:51;;;;;;;43.55;7.43;;;10.60;99.90;;;;;;5051661;28;20387;-79
2024/01/24 06:47:17;;;;;;;46.80;6.50;;;10.50;99.90;;;;;;5067845;28;20039;-80
2024/01/24 06:49:44;;;;;;;51.15;7.90;;;10.40;99.90;;;;;;5067409;28;20043;-80
2024/01/24 06:52:10;;;;;;;45.40;8.27;;;10.40;99.90;;;;;;5068143;28;20039;-81
2024/01/24 06:54:36;;;;;;;52.50;8.20;;;10.30;99.90;;;;;;5066762;28;20032;-78
2024/01/24 06:57:04;;;;;;;40.78;6.68;;;10.20;99.90;;;;;;5067034;28;20474;-83
2024/01/24 06:59:31;;;;;;;47.95;7.65;;;10.20;99.90;;;;;;5068081;28;20040;-81
2024/01/24 07:01:59;;;;;;;44.50;9.05;;;10.20;99.90;;;;;;5066442;28;20044;-81
2024/01/24 07:04:26;;;;;;;50.53;8.20;;;10.10;99.90;;;;;;5049710;28;20020;-79
2024/01/24 07:06:52;;;;;;;52.38;7.93;;;10.00;99.90;;;;;;5067187;28;20039;-81
2024/01/24 07:09:18;;;;;;;45.70;7.35;;;9.90;99.90;;;;;;5049878;28;20043;-79
2024/01/24 07:11:44;;;;;;;44.00;7.72;;;9.90;99.90;;;;;;5066349;28;20048;-82
2024/01/24 07:14:12;;;;;;;40.25;7.88;;;9.80;99.90;;;;;;5066524;28;20016;-81
2024/01/24 07:16:38;;;;;;;39.30;7.85;;;9.80;99.90;;;;;;5066515;28;20043;-81
2024/01/24 07:19:05;;;;;;;47.65;8.60;;;9.80;99.90;;;;;;5048897;28;20024;-82
2024/01/24 07:21:32;;;;;;;49.65;8.27;;;9.70;99.90;;;;;;5049256;28;20039;-80
2024/01/24 07:23:58;;;;;;;55.33;8.82;;;9.70;99.90;;;;;;5050493;28;20044;-80
2024/01/24 07:26:25;;;;;;;41.42;6.43;;;9.70;99.90;;;;;;5075304;28;20024;-80
2024/01/24 07:28:52;;;;;;;45.50;7.32;;;9.60;99.90;;;;;;5051167;28;20394;-79
2024/01/24 07:31:18;;;;;;;48.38;7.93;;;9.60;99.90;;;;;;5066941;28;20040;-82
2024/01/24 07:33:44;;;;;;;55.72;9.32;;;9.60;99.90;;;;;;5032860;28;20028;-80
2024/01/24 07:36:12;;;;;;;57.38;9.35;;;9.60;99.90;;;;;;5066130;28;20036;-79
2024/01/24 07:38:39;;;;;;;47.45;7.63;;;9.50;99.90;;;;;;5067259;28;20487;-81
2024/01/24 07:41:07;;;;;;;46.65;8.38;;;9.50;99.90;;;;;;5038677;28;20275;-80
2024/01/24 07:43:34;;;;;;;41.00;8.32;;;9.50;99.90;;;;;;5065428;28;20032;-79
2024/01/24 07:46:01;;;;;;;46.88;9.00;;;9.50;99.90;;;;;;5066101;28;20046;-80
2024/01/24 07:48:27;;;;;;;51.17;9.05;;;9.40;99.90;;;;;;5065368;28;20475;-80
2024/01/24 07:50:54;;;;;;;54.08;9.50;;;9.40;99.90;;;;;;5046796;28;20495;-78
2024/01/24 07:53:20;;;;;;;48.70;8.38;;;9.40;99.90;;;;;;5065308;28;20039;-81
2024/01/24 07:55:47;;;;;;;43.72;7.43;;;9.40;99.90;;;;;;5067300;28;20028;-81
2024/01/24 07:58:13;;;;;;;54.47;8.43;;;9.30;99.90;;;;;;5065621;28;20020;-81
2024/01/24 08:00:39;;;;;;;48.33;7.45;;;9.30;99.90;;;;;;5065146;28;20413;-80
2024/01/24 08:03:07;;;;;;;43.67;8.80;;;9.30;99.90;;;;;;5035051;28;20036;-81
2024/01/24 08:05:35;;;;;;;49.40;8.18;;;9.30;99.90;;;;;;5065442;28;20043;-80
2024/01/24 08:08:01;;;;;;;50.38;7.88;;;9.30;99.90;;;;;;5065877;28;20336;-80
2024/01/24 08:10:28;;;;;;;37.60;6.47;;;9.20;99.90;;;;;;5068744;28;20470;-81
2024/01/24 08:12:54;;;;;;;53.03;7.82;;;9.30;99.90;;;;;;5067813;28;20029;-80
2024/01/24 08:15:20;;;;;;;49.63;8.70;;;9.20;99.90;;;;;;5066096;28;20032;-80
2024/01/24 08:17:47;;;;;;;45.42;6.68;;;9.30;99.90;;;;;;5052931;28;20390;-79
2024/01/24 08:20:14;;;;;;;59.25;7.78;;;9.30;99.90;;;;;;5054852;28;20386;-81
2024/01/24 08:22:40;;;;;;;44.35;6.65;;;9.30;99.90;;;;;;5090277;28;20399;-81
2024/01/24 08:25:07;;;;;;;47.15;9.20;;;9.30;99.90;;;;;;5053612;28;20028;-78
2024/01/24 08:27:35;;;;;;;59.30;8.50;;;9.30;99.90;;;;;;5067659;28;20028;-81
2024/01/24 08:30:01;;;;;;;47.15;7.75;;;9.40;99.90;;;;;;5060036;28;20500;-78
2024/01/24 08:32:27;;;;;;;44.40;7.45;;;9.40;99.90;;;;;;5067739;28;20032;-81
2024/01/24 08:34:53;;;;;;;39.00;7.82;;;9.40;99.90;;;;;;5067358;28;20482;-81
2024/01/24 08:37:20;;;;;;;40.85;6.97;;;9.50;99.90;;;;;;5066908;28;20032;-82
2024/01/24 08:39:46;;;;;;;45.15;6.68;;;9.40;99.90;;;;;;5034645;28;20065;-80
2024/01/24 08:42:13;;;;;;;45.70;8.80;;;9.50;99.90;;;;;;5064689;28;20036;-81
2024/01/24 08:44:39;;;;;;;46.90;7.05;;;9.50;99.90;;;;;;5064850;28;20509;-80
2024/01/24 08:47:06;;;;;;;46.08;8.50;;;9.50;99.90;;;;;;5068283;28;20481;-80
2024/01/24 08:49:32;;;;;;;45.85;6.55;;;9.60;99.90;;;;;;5064342;28;20513;-82
2024/01/24 08:51:59;;;;;;;46.35;7.68;;;9.60;99.90;;;;;;5064278;28;20043;-82
2024/01/24 08:54:25;;;;;;;44.55;6.93;;;9.60;99.90;;;;;;5064292;28;20458;-79
2024/01/24 08:56:51;;;;;;;46.25;8.07;;;9.60;99.90;;;;;;5064940;28;20039;-82
2024/01/24 08:59:18;;;;;;;37.15;7.00;;;9.70;99.90;;;;;;5064304;28;20032;-82
2024/01/24 09:01:45;;;;;;;41.55;7.63;;;9.80;99.90;;;;;;5047390;28;20417;-79
2024/01/24 09:04:12;;;;;;;42.45;8.32;;;9.90;99.90;;;;;;5064129;28;20111;-81
2024/01/24 09:06:38;;;;;;;37.97;6.88;;;10.00;99.90;;;;;;5047684;28;20040;-81
2024/01/24 09:09:06;;;;;;;42.65;6.82;;;10.00;99.90;;;;;;5047969;28;20502;-81
2024/01/24 09:11:32;;;;;;;40.72;6.80;;;10.00;99.90;;;;;;5065110;28;20371;-81
2024/01/24 09:13:59;;;;;;;38.70;7.90;;;10.00;99.90;;;;;;5064246;28;20033;-79
2024/01/24 09:16:25;;;;;;;48.00;8.60;;;10.00;99.90;;;;;;5047677;28;20033;-80
2024/01/24 09:18:51;;;;;;;32.22;6.28;;;10.00;99.90;;;;;;5047756;28;20044;-81
2024/01/24 09:21:18;;;;;;;35.60;6.28;;;10.00;99.90;;;;;;5047267;28;20391;-82
2024/01/24 09:23:44;;;;;;;51.38;8.23;;;10.00;99.90;;;;;;5046790;28;20496;-80
2024/01/24 09:26:11;;;;;;;43.45;6.60;;;10.00;99.90;;;;;;5032082;28;20047;-81
2024/01/24 09:28:37;;;;;;;38.90;8.88;;;10.10;99.90;;;;;;5063662;28;20037;-81
2024/01/24 09:31:04;;;;;;;44.50;9.65;;;10.10;99.90;;;;;;5042806;28;20044;-81
2024/01/24 09:33:30;;;;;;;38.75;6.95;;;10.10;99.90;;;;;;5059444;28;20037;-78
2024/01/24 09:35:57;;;;;;;38.05;6.78;;;10.10;99.90;;;;;;5081478;28;20036;-81
2024/01/24 09:38:23;;;;;;;40.30;7.47;;;10.10;99.90;;;;;;5031294;28;20376;-84
2024/01/24 09:40:49;;;;;;;36.30;7.10;;;10.10;99.90;;;;;;5063664;28;20039;-82
2024/01/24 09:43:16;;;;;;;45.42;6.53;;;10.10;99.90;;;;;;5064224;28;20498;-84
2024/01/24 09:45:44;;;;;;;37.55;6.32;;;10.20;99.90;;;;;;5049030;28;20371;-79
2024/01/24 09:48:11;;;;;;;38.80;7.85;;;10.20;99.90;;;;;;5051395;28;20046;-81
2024/01/24 09:50:38;;;;;;;34.90;7.18;;;10.20;99.90;;;;;;5051203;28;20039;-82
2024/01/24 09:53:08;;;;;;;37.65;6.85;;;10.30;99.90;;;;;;5069139;28;20040;-84
2024/01/24 09:55:34;;;;;;;41.83;8.13;;;10.30;99.90;;;;;;5068367;28;20047;-82
2024/01/24 09:58:01;;;;;;;45.03;8.20;;;10.30;99.90;;;;;;5069183;28;20065;-79
2024/01/24 10:00:28;;;;;;;43.00;7.38;;;10.40;99.90;;;;;;5067424;28;20048;-82
2024/01/24 10:02:55;;;;;;;43.45;8.02;;;10.40;99.90;;;;;;5038594;28;20043;-83
2024/01/24 10:05:24;;;;;;;48.38;8.98;;;10.40;99.90;;;;;;5084381;28;20036;-82
2024/01/24 10:07:51;;;;;;;33.08;6.63;;;10.60;99.90;;;;;;5051120;28;20043;-84
2024/01/24 10:10:18;;;;;;;31.58;6.38;;;10.70;99.90;;;;;;5047177;28;20044;-82
2024/01/24 10:12:44;;;;;;;41.95;6.15;;;10.80;99.90;;;;;;5050475;28;20051;-83
2024/01/24 10:15:11;;;;;;;37.05;6.88;;;11.00;99.90;;;;;;5050662;28;20037;-84
2024/01/24 10:17:42;;;;;;;38.08;6.15;;;11.10;99.90;;;;;;5050808;28;20405;-79
2024/01/24 10:20:11;;;;;;;33.72;6.47;;;11.30;99.90;;;;;;5034436;28;20043;-80
2024/01/24 10:22:39;;;;;;;28.60;6.07;;;11.40;99.90;;;;;;5050340;28;20039;-79
2024/01/24 10:25:06;;;;;;;36.85;6.95;;;11.60;99.90;;;;;;5067113;28;20554;-80
2024/01/24 10:27:34;;;;;;;33.10;6.55;;;11.70;99.90;;;;;;5064224;28;20057;-79
2024/01/24 10:30:00;;;;;;;33.70;6.47;;;11.90;99.90;;;;;;5065671;28;20043;-81
2024/01/24 10:32:27;;;;;;;30.02;5.32;;;12.10;99.90;;;;;;5051167;28;20158;-80
2024/01/24 10:34:53;;;;;;;35.58;6.05;;;12.10;99.90;;;;;;5067610;28;20039;-80
2024/01/24 10:37:20;;;;;;;32.47;6.70;;;12.10;99.90;;;;;;5074931;28;20033;-81
2024/01/24 10:39:48;;;;;;;30.80;6.10;;;12.10;99.90;;;;;;5068527;28;20450;-81
2024/01/24 10:42:18;;;;;;;34.03;6.70;;;12.10;99.90;;;;;;5065706;28;20426;-80
2024/01/24 10:44:51;;;;;;;27.92;6.28;;;12.10;99.90;;;;;;5052027;28;20032;-79
2024/01/24 10:47:18;;;;;;;;;;;12.00;99.90;;;;;;5071913;28;20036;-83
2024/01/24 10:49:45;;;;;;;41.42;6.85;;;11.90;99.90;;;;;;5071392;28;19916;-79
2024/01/24 10:52:15;;;;;;;33.42;5.60;;;11.90;99.90;;;;;;5070021;28;20411;-83
2024/01/24 10:54:43;;;;;;;34.38;5.50;;;11.80;99.90;;;;;;5048570;28;20024;-82
2024/01/24 10:57:12;;;;;;;31.23;6.75;;;11.70;99.90;;;;;;5064846;28;20043;-79
2024/01/24 10:59:39;;;;;;;34.35;6.55;;;11.60;99.90;;;;;;5066673;28;20055;-83
2024/01/24 11:02:08;;;;;;;42.35;6.43;;;11.50;99.90;;;;;;5068762;28;20028;-83
2024/01/24 11:04:37;;;;;;;40.60;6.88;;;11.40;99.90;;;;;;5068943;28;20036;-80
2024/01/24 11:07:14;;;;;;;33.50;7.18;;;11.50;99.90;;;;;;5049184;28;20025;-76
2024/01/24 11:10:10;;;;;;;39.00;7.53;;;11.50;99.90;;;;;;5063966;28;20048;-84
2024/01/24 11:12:36;;;;;;;40.28;6.97;;;11.50;99.90;;;;;;5046344;28;20052;-86
2024/01/24 11:15:08;;;;;;;35.00;5.82;;;11.50;99.90;;;;;;5063810;28;20028;-83
2024/01/24 11:17:35;;;;;;;37.70;7.38;;;11.50;99.90;;;;;;5066348;28;20036;-76
2024/01/24 11:20:12;;;;;;;40.30;7.93;;;11.40;99.90;;;;;;5047694;28;20510;-80
2024/01/24 11:22:38;;;;;;;44.08;7.15;;;11.40;99.90;;;;;;5049197;28;20426;-81
2024/01/24 11:25:05;;;;;;;35.05;6.63;;;11.40;99.90;;;;;;5055960;28;20039;-82
2024/01/24 11:27:34;;;;;;;27.40;6.30;;;11.30;99.90;;;;;;5046517;28;20048;-82
2024/01/24 11:30:06;;;;;;;37.28;7.72;;;11.30;99.90;;;;;;5050285;28;20040;-82
2024/01/24 11:32:47;;;;;;;39.05;8.30;;;11.30;99.90;;;;;;5059389;28;20378;-81
2024/01/24 11:35:34;;;;;;;37.22;6.85;;;11.40;99.90;;;;;;5065713;28;20510;-82
2024/01/24 11:38:27;;;;;;;33.33;6.80;;;11.40;99.90;;;;;;5068634;28;20070;-80
2024/01/24 11:41:22;;;;;;;35.00;7.85;;;11.50;99.90;;;;;;5076589;28;20029;-80
2024/01/24 11:43:49;;;;;;;39.53;8.38;;;11.50;99.90;;;;;;5065212;28;20032;-84
2024/01/24 11:46:18;;;;;;;34.78;5.88;;;11.50;99.90;;;;;;5036076;28;20483;-82
2024/01/24 11:48:44;;;;;;;32.03;6.80;;;11.50;99.90;;;;;;5066103;28;20048;-82
2024/01/24 11:51:11;;;;;;;38.25;7.10;;;11.50;99.90;;;;;;5049257;28;20032;-78
2024/01/24 11:53:38;;;;;;;31.88;6.50;;;11.40;99.90;;;;;;5065257;28;20118;-83
2024/01/24 11:56:14;;;;;;;32.15;6.90;;;11.40;99.90;;;;;;5049582;28;20039;-81
2024/01/24 11:58:41;;;;;;;29.85;6.43;;;11.50;99.90;;;;;;5063853;28;20043;-79
2024/01/24 12:01:09;;;;;;;32.38;5.93;;;11.40;99.90;;;;;;5047464;28;20040;-83
2024/01/24 12:03:35;;;;;;;29.30;5.43;;;11.40;99.90;;;;;;5064830;28;20738;-83
2024/01/24 12:06:04;;;;;;;33.58;5.88;;;11.40;99.90;;;;;;5063234;28;20029;-80
2024/01/24 12:08:30;;;;;;;38.92;6.43;;;11.50;99.90;;;;;;5059995;28;20039;-83
2024/01/24 12:10:57;;;;;;;40.35;6.90;;;11.60;99.90;;;;;;5066927;28;20058;-80
2024/01/24 12:13:27;;;;;;;25.10;5.07;;;11.70;99.90;;;;;;5065725;28;20059;-79
2024/01/24 12:15:58;;;;;;;31.30;5.88;;;11.70;99.90;;;;;;5053782;28;20659;-83
2024/01/24 12:18:27;;;;;;;28.85;5.50;;;11.80;99.90;;;;;;5065395;28;20044;-81
2024/01/24 12:20:54;;;;;;;38.90;6.07;;;11.80;99.90;;;;;;5068627;28;20031;-80
2024/01/24 12:23:22;;;;;;;27.45;5.38;;;11.80;99.90;;;;;;5068643;28;20526;-78
2024/01/24 12:25:49;;;;;;;31.33;6.43;;;11.70;99.90;;;;;;5030995;28;20048;-78
2024/01/24 12:28:17;;;;;;;30.25;5.13;;;11.70;99.90;;;;;;5050447;28;20036;-83
2024/01/24 12:30:46;;;;;;;30.05;4.85;;;11.70;99.90;;;;;;5051368;28;20212;-83
2024/01/24 12:33:15;;;;;;;27.55;6.32;;;11.70;99.90;;;;;;5071840;28;20028;-79
2024/01/24 12:35:45;;;;;;;25.15;5.10;;;11.70;99.90;;;;;;5071755;28;20044;-81
2024/01/24 12:38:12;;;;;;;25.20;4.13;;;11.70;99.90;;;;;;5029384;28;20036;-82
2024/01/24 12:40:38;;;;;;;25.17;4.68;;;11.60;99.90;;;;;;5050865;28;20043;-84
2024/01/24 12:43:05;;;;;;;21.10;3.88;;;11.60;99.90;;;;;;5036039;28;20039;-82